Terminal Aerodrome Forecast
Issued by NWS

Current Version | Previous Version | Text Only | Print | Product List | Glossary Off
Versions: 1 2 3 4 5 6 7 8 9 10 11 12 13 14 15 16 17 18 19 20 21 22 23 24 25 26

000
FTUS41 KILN 211100
TAFLUK
TAF
KLUK 211138Z 2112/2212 21005KT P6SM SCT050 BKN100
      TEMPO 2113/2117 3SM TSRA BR OVC025CB
     FM211800 23008KT P6SM SCT050 BKN100
     FM220000 22004KT P6SM SCT050 BKN150
     FM221100 22004KT P6SM BKN040=

USA.gov is the U.S. government's official web portal to all federal, state and local government web resources and services.